sensor_id;sensor_type;location;lat;lon;timestamp;pressure;altitude;pressure_sealevel;temperature;humidity
39699;BME280;25372;50.582;12.250;2024-02-04T00:05:44;100046.28;;;7.18;96.34
39699;BME280;25372;50.582;12.250;2024-02-04T00:16:05;100039.16;;;7.03;99.49
39699;BME280;25372;50.582;12.250;2024-02-04T00:26:28;100015.13;;;6.75;100.00
39699;BME280;25372;50.582;12.250;2024-02-04T00:36:49;100033.53;;;6.72;100.00
39699;BME280;25372;50.582;12.250;2024-02-04T00:47:12;100058.16;;;6.85;100.00
39699;BME280;25372;50.582;12.250;2024-02-04T00:57:33;100053.50;;;6.73;100.00
39699;BME280;25372;50.582;12.250;2024-02-04T01:07:56;100028.53;;;6.47;100.00
39699;BME280;25372;50.582;12.250;2024-02-04T01:18:17;100027.38;;;6.54;100.00
39699;BME280;25372;50.582;12.250;2024-02-04T01:28:39;100045.84;;;6.68;100.00
39699;BME280;25372;50.582;12.250;2024-02-04T01:39:00;100039.09;;;6.64;99.42
39699;BME280;25372;50.582;12.250;2024-02-04T01:49:23;100031.28;;;6.23;100.00
39699;BME280;25372;50.582;12.250;2024-02-04T01:59:45;100028.13;;;5.94;100.00
39699;BME280;25372;50.582;12.250;2024-02-04T02:10:08;100030.91;;;6.11;100.00
39699;BME280;25372;50.582;12.250;2024-02-04T02:20:37;100008.28;;;6.12;100.00
39699;BME280;25372;50.582;12.250;2024-02-04T02:31:04;99991.53;;;6.18;100.00
39699;BME280;25372;50.582;12.250;2024-02-04T02:41:27;99993.06;;;6.42;100.00
39699;BME280;25372;50.582;12.250;2024-02-04T02:51:52;99991.50;;;6.59;100.00
39699;BME280;25372;50.582;12.250;2024-02-04T03:02:14;99986.94;;;6.63;100.00
39699;BME280;25372;50.582;12.250;2024-02-04T03:12:36;99979.56;;;6.72;100.00
39699;BME280;25372;50.582;12.250;2024-02-04T03:22:57;99980.97;;;6.61;100.00
39699;BME280;25372;50.582;12.250;2024-02-04T03:33:20;99974.41;;;6.52;100.00
39699;BME280;25372;50.582;12.250;2024-02-04T03:43:41;99990.22;;;6.28;100.00
39699;BME280;25372;50.582;12.250;2024-02-04T03:54:04;99995.97;;;5.93;100.00
39699;BME280;25372;50.582;12.250;2024-02-04T04:04:26;100008.47;;;5.85;100.00
39699;BME280;25372;50.582;12.250;2024-02-04T04:14:48;99966.66;;;5.88;100.00
39699;BME280;25372;50.582;12.250;2024-02-04T04:25:09;99971.25;;;6.24;100.00
39699;BME280;25372;50.582;12.250;2024-02-04T04:35:32;99952.19;;;6.43;100.00
39699;BME280;25372;50.582;12.250;2024-02-04T04:45:53;99971.81;;;6.31;100.00
39699;BME280;25372;50.582;12.250;2024-02-04T04:56:15;99966.84;;;6.46;100.00
39699;BME280;25372;50.582;12.250;2024-02-04T05:06:36;99951.84;;;6.51;99.79
39699;BME280;25372;50.582;12.250;2024-02-04T05:16:59;99947.03;;;6.61;100.00
39699;BME280;25372;50.582;12.250;2024-02-04T05:27:20;99929.75;;;6.58;100.00
39699;BME280;25372;50.582;12.250;2024-02-04T05:37:43;99916.66;;;6.60;100.00
39699;BME280;25372;50.582;12.250;2024-02-04T05:48:04;99907.47;;;6.51;100.00
39699;BME280;25372;50.582;12.250;2024-02-04T05:58:27;99908.31;;;6.32;100.00
39699;BME280;25372;50.582;12.250;2024-02-04T06:08:49;99904.38;;;6.62;100.00
39699;BME280;25372;50.582;12.250;2024-02-04T06:19:11;99895.28;;;6.70;100.00
39699;BME280;25372;50.582;12.250;2024-02-04T06:29:32;99889.63;;;6.61;100.00
39699;BME280;25372;50.582;12.250;2024-02-04T06:39:55;99857.06;;;6.31;100.00
39699;BME280;25372;50.582;12.250;2024-02-04T06:50:15;99863.69;;;6.38;100.00
39699;BME280;25372;50.582;12.250;2024-02-04T07:00:38;99870.94;;;6.51;100.00
39699;BME280;25372;50.582;12.250;2024-02-04T07:10:59;99853.38;;;6.74;100.00
39699;BME280;25372;50.582;12.250;2024-02-04T07:21:21;99865.06;;;6.84;100.00
39699;BME280;25372;50.582;12.250;2024-02-04T07:31:42;99852.94;;;7.00;100.00
39699;BME280;25372;50.582;12.250;2024-02-04T07:42:05;99839.22;;;7.14;100.00
39699;BME280;25372;50.582;12.250;2024-02-04T07:52:26;99813.81;;;7.18;100.00
39699;BME280;25372;50.582;12.250;2024-02-04T08:02:48;99837.00;;;7.42;99.40
39699;BME280;25372;50.582;12.250;2024-02-04T08:13:09;99828.75;;;7.67;97.30
39699;BME280;25372;50.582;12.250;2024-02-04T08:23:32;99819.81;;;8.05;94.82
39699;BME280;25372;50.582;12.250;2024-02-04T08:33:53;99810.72;;;8.29;92.82
39699;BME280;25372;50.582;12.250;2024-02-04T08:44:15;99826.16;;;8.33;91.89
39699;BME280;25372;50.582;12.250;2024-02-04T08:54:36;99834.06;;;8.65;91.33
39699;BME280;25372;50.582;12.250;2024-02-04T09:04:58;99842.00;;;8.80;91.43
39699;BME280;25372;50.582;12.250;2024-02-04T09:15:20;99843.38;;;8.05;97.60
39699;BME280;25372;50.582;12.250;2024-02-04T09:25:42;99856.88;;;7.80;100.00
39699;BME280;25372;50.582;12.250;2024-02-04T09:36:04;99835.47;;;7.89;100.00
39699;BME280;25372;50.582;12.250;2024-02-04T09:46:27;99853.38;;;7.97;100.00
39699;BME280;25372;50.582;12.250;2024-02-04T09:56:48;99835.78;;;8.17;97.72
39699;BME280;25372;50.582;12.250;2024-02-04T10:07:12;99831.59;;;8.46;96.40
39699;BME280;25372;50.582;12.250;2024-02-04T10:17:36;99806.53;;;8.26;98.70
39699;BME280;25372;50.582;12.250;2024-02-04T10:27:58;99796.78;;;7.96;99.90
39699;BME280;25372;50.582;12.250;2024-02-04T10:38:20;99775.19;;;8.08;100.00
39699;BME280;25372;50.582;12.250;2024-02-04T10:48:43;99765.41;;;7.96;100.00
39699;BME280;25372;50.582;12.250;2024-02-04T10:59:06;99745.47;;;7.93;99.73
39699;BME280;25372;50.582;12.250;2024-02-04T11:09:30;99735.63;;;8.15;100.00
39699;BME280;25372;50.582;12.250;2024-02-04T11:20:03;99709.47;;;8.31;98.05
39699;BME280;25372;50.582;12.250;2024-02-04T11:30:32;99694.28;;;8.21;98.58
39699;BME280;25372;50.582;12.250;2024-02-04T11:40:53;99694.25;;;8.53;95.48
39699;BME280;25372;50.582;12.250;2024-02-04T11:51:16;99701.63;;;8.31;96.88
39699;BME280;25372;50.582;12.250;2024-02-04T12:01:37;99687.00;;;8.10;97.37
39699;BME280;25372;50.582;12.250;2024-02-04T12:12:00;99677.69;;;8.37;93.35
39699;BME280;25372;50.582;12.250;2024-02-04T12:22:23;99645.75;;;8.62;93.69
39699;BME280;25372;50.582;12.250;2024-02-04T12:32:55;99644.22;;;8.89;90.75
39699;BME280;25372;50.582;12.250;2024-02-04T12:43:16;99630.22;;;9.19;89.17
39699;BME280;25372;50.582;12.250;2024-02-04T12:53:39;99630.28;;;9.17;85.90
39699;BME280;25372;50.582;12.250;2024-02-04T13:04:02;99612.50;;;9.22;84.44
39699;BME280;25372;50.582;12.250;2024-02-04T13:14:24;99613.78;;;9.44;85.12
39699;BME280;25372;50.582;12.250;2024-02-04T13:24:45;99607.97;;;9.54;84.69
39699;BME280;25372;50.582;12.250;2024-02-04T13:35:08;99634.59;;;9.33;85.12
39699;BME280;25372;50.582;12.250;2024-02-04T13:45:29;99645.53;;;8.51;94.07
39699;BME280;25372;50.582;12.250;2024-02-04T13:55:52;99665.47;;;8.53;91.93
39699;BME280;25372;50.582;12.250;2024-02-04T14:06:13;99681.44;;;8.33;91.30
39699;BME280;25372;50.582;12.250;2024-02-04T14:16:35;99687.44;;;8.03;94.52
39699;BME280;25372;50.582;12.250;2024-02-04T14:26:56;99686.25;;;7.76;93.44
39699;BME280;25372;50.582;12.250;2024-02-04T14:37:19;99680.97;;;7.94;91.60
39699;BME280;25372;50.582;12.250;2024-02-04T14:47:41;99664.59;;;7.90;88.51
39699;BME280;25372;50.582;12.250;2024-02-04T14:58:03;99673.28;;;7.91;86.85
39699;BME280;25372;50.582;12.250;2024-02-04T15:08:24;99681.47;;;7.84;86.56
39699;BME280;25372;50.582;12.250;2024-02-04T15:18:48;99707.09;;;7.62;89.53
39699;BME280;25372;50.582;12.250;2024-02-04T15:29:11;99703.72;;;7.26;91.60
39699;BME280;25372;50.582;12.250;2024-02-04T15:39:35;99709.03;;;7.07;93.58
39699;BME280;25372;50.582;12.250;2024-02-04T15:49:57;99684.84;;;6.85;95.07
39699;BME280;25372;50.582;12.250;2024-02-04T16:00:22;99694.31;;;6.88;94.67
39699;BME280;25372;50.582;12.250;2024-02-04T16:10:45;99682.41;;;6.82;95.49
39699;BME280;25372;50.582;12.250;2024-02-04T16:21:09;99673.81;;;6.80;95.12
39699;BME280;25372;50.582;12.250;2024-02-04T16:31:31;99684.72;;;6.89;94.07
39699;BME280;25372;50.582;12.250;2024-02-04T16:41:53;99676.94;;;6.87;94.95
39699;BME280;25372;50.582;12.250;2024-02-04T16:52:14;99674.66;;;6.81;97.06
39699;BME280;25372;50.582;12.250;2024-02-04T17:02:37;99688.63;;;6.62;100.00
39699;BME280;25372;50.582;12.250;2024-02-04T17:12:58;99688.31;;;6.51;100.00
39699;BME280;25372;50.582;12.250;2024-02-04T17:23:25;99667.44;;;6.51;100.00
39699;BME280;25372;50.582;12.250;2024-02-04T17:33:47;99646.31;;;6.38;100.00
39699;BME280;25372;50.582;12.250;2024-02-04T17:44:12;99664.53;;;6.39;100.00
39699;BME280;25372;50.582;12.250;2024-02-04T17:54:34;99625.63;;;6.35;100.00
39699;BME280;25372;50.582;12.250;2024-02-04T18:04:58;99631.06;;;6.30;100.00
39699;BME280;25372;50.582;12.250;2024-02-04T18:15:20;99636.00;;;6.36;100.00
39699;BME280;25372;50.582;12.250;2024-02-04T18:25:43;99603.47;;;6.26;100.00
39699;BME280;25372;50.582;12.250;2024-02-04T18:36:05;99631.00;;;6.32;100.00
39699;BME280;25372;50.582;12.250;2024-02-04T18:46:27;99627.69;;;6.28;100.00
39699;BME280;25372;50.582;12.250;2024-02-04T18:56:49;99617.72;;;6.36;100.00
39699;BME280;25372;50.582;12.250;2024-02-04T19:07:11;99593.16;;;6.23;100.00
39699;BME280;25372;50.582;12.250;2024-02-04T19:17:33;99618.41;;;6.22;100.00
39699;BME280;25372;50.582;12.250;2024-02-04T19:27:57;99611.72;;;6.34;100.00
39699;BME280;25372;50.582;12.250;2024-02-04T19:38:18;99589.25;;;6.14;100.00
39699;BME280;25372;50.582;12.250;2024-02-04T19:48:41;99583.66;;;6.22;100.00
39699;BME280;25372;50.582;12.250;2024-02-04T19:59:03;99574.91;;;6.23;100.00
39699;BME280;25372;50.582;12.250;2024-02-04T20:09:25;99561.63;;;6.27;100.00
39699;BME280;25372;50.582;12.250;2024-02-04T20:19:47;99566.72;;;6.31;100.00
39699;BME280;25372;50.582;12.250;2024-02-04T20:30:10;99564.47;;;6.23;100.00
39699;BME280;25372;50.582;12.250;2024-02-04T20:40:34;99554.97;;;6.22;100.00
39699;BME280;25372;50.582;12.250;2024-02-04T20:50:56;99540.56;;;6.14;100.00
39699;BME280;25372;50.582;12.250;2024-02-04T21:01:18;99529.56;;;6.08;100.00
39699;BME280;25372;50.582;12.250;2024-02-04T21:11:42;99498.69;;;6.18;100.00
39699;BME280;25372;50.582;12.250;2024-02-04T21:22:04;99508.47;;;6.30;100.00
39699;BME280;25372;50.582;12.250;2024-02-04T21:32:26;99489.41;;;6.46;100.00
39699;BME280;25372;50.582;12.250;2024-02-04T21:42:48;99449.50;;;6.61;100.00
39699;BME280;25372;50.582;12.250;2024-02-04T21:53:11;99412.63;;;6.83;100.00
39699;BME280;25372;50.582;12.250;2024-02-04T22:03:32;99406.19;;;7.21;100.00
39699;BME280;25372;50.582;12.250;2024-02-04T22:13:55;99391.44;;;7.36;100.00
39699;BME280;25372;50.582;12.250;2024-02-04T22:24:16;99384.06;;;7.43;100.00
39699;BME280;25372;50.582;12.250;2024-02-04T22:34:39;99349.91;;;7.46;100.00
39699;BME280;25372;50.582;12.250;2024-02-04T22:44:59;99348.72;;;7.52;100.00
39699;BME280;25372;50.582;12.250;2024-02-04T22:55:22;99333.63;;;7.57;100.00
39699;BME280;25372;50.582;12.250;2024-02-04T23:05:43;99353.69;;;7.56;100.00
39699;BME280;25372;50.582;12.250;2024-02-04T23:16:06;99343.06;;;7.60;100.00
39699;BME280;25372;50.582;12.250;2024-02-04T23:26:28;99337.09;;;7.72;100.00
39699;BME280;25372;50.582;12.250;2024-02-04T23:36:51;99329.72;;;7.64;100.00
39699;BME280;25372;50.582;12.250;2024-02-04T23:47:12;99340.81;;;7.68;100.00
39699;BME280;25372;50.582;12.250;2024-02-04T23:57:35;99347.09;;;7.65;100.00
